sensor_id;sensor_type;location;lat;lon;timestamp;temperature;humidity
82001;SHT30;71522;50.870;3.524;2024-01-30T00:01:59;10.98;77.49
82001;SHT30;71522;50.870;3.524;2024-01-30T00:04:25;11.02;77.40
82001;SHT30;71522;50.870;3.524;2024-01-30T00:06:51;10.95;77.49
82001;SHT30;71522;50.870;3.524;2024-01-30T00:09:18;10.97;77.55
82001;SHT30;71522;50.870;3.524;2024-01-30T00:11:44;11.01;77.33
82001;SHT30;71522;50.870;3.524;2024-01-30T00:14:11;11.00;77.46
82001;SHT30;71522;50.870;3.524;2024-01-30T00:16:36;10.94;77.69
82001;SHT30;71522;50.870;3.524;2024-01-30T00:19:02;10.94;77.72
82001;SHT30;71522;50.870;3.524;2024-01-30T00:21:29;11.02;77.40
82001;SHT30;71522;50.870;3.524;2024-01-30T00:23:55;10.94;77.68
82001;SHT30;71522;50.870;3.524;2024-01-30T00:26:21;11.00;77.61
82001;SHT30;71522;50.870;3.524;2024-01-30T00:28:47;11.00;77.62
82001;SHT30;71522;50.870;3.524;2024-01-30T00:31:12;10.98;77.77
82001;SHT30;71522;50.870;3.524;2024-01-30T00:33:40;11.00;77.61
82001;SHT30;71522;50.870;3.524;2024-01-30T00:36:09;11.01;77.68
82001;SHT30;71522;50.870;3.524;2024-01-30T00:38:36;11.05;77.45
82001;SHT30;71522;50.870;3.524;2024-01-30T00:41:02;11.02;77.46
82001;SHT30;71522;50.870;3.524;2024-01-30T00:43:28;11.05;77.58
82001;SHT30;71522;50.870;3.524;2024-01-30T00:45:55;11.05;77.47
82001;SHT30;71522;50.870;3.524;2024-01-30T00:48:21;11.07;77.44
82001;SHT30;71522;50.870;3.524;2024-01-30T00:50:46;11.04;77.63
82001;SHT30;71522;50.870;3.524;2024-01-30T00:53:12;11.05;77.57
82001;SHT30;71522;50.870;3.524;2024-01-30T00:55:38;11.04;77.67
82001;SHT30;71522;50.870;3.524;2024-01-30T00:58:04;11.04;77.68
82001;SHT30;71522;50.870;3.524;2024-01-30T01:00:31;10.97;77.82
82001;SHT30;71522;50.870;3.524;2024-01-30T01:02:58;10.97;77.70
82001;SHT30;71522;50.870;3.524;2024-01-30T01:05:25;11.00;77.68
82001;SHT30;71522;50.870;3.524;2024-01-30T01:07:51;11.07;77.52
82001;SHT30;71522;50.870;3.524;2024-01-30T01:10:17;11.05;77.47
82001;SHT30;71522;50.870;3.524;2024-01-30T01:12:44;11.08;77.63
82001;SHT30;71522;50.870;3.524;2024-01-30T01:15:10;11.07;77.61
82001;SHT30;71522;50.870;3.524;2024-01-30T01:17:39;11.08;77.71
82001;SHT30;71522;50.870;3.524;2024-01-30T01:20:06;11.11;77.65
82001;SHT30;71522;50.870;3.524;2024-01-30T01:22:32;11.07;77.68
82001;SHT30;71522;50.870;3.524;2024-01-30T01:25:00;11.02;78.01
82001;SHT30;71522;50.870;3.524;2024-01-30T01:27:26;11.08;77.86
82001;SHT30;71522;50.870;3.524;2024-01-30T01:29:52;11.15;77.70
82001;SHT30;71522;50.870;3.524;2024-01-30T01:32:18;11.21;77.47
82001;SHT30;71522;50.870;3.524;2024-01-30T01:34:44;11.21;77.46
82001;SHT30;71522;50.870;3.524;2024-01-30T01:37:10;11.23;77.49
82001;SHT30;71522;50.870;3.524;2024-01-30T01:39:36;11.25;77.39
82001;SHT30;71522;50.870;3.524;2024-01-30T01:42:02;11.25;77.34
82001;SHT30;71522;50.870;3.524;2024-01-30T01:44:27;11.15;77.60
82001;SHT30;71522;50.870;3.524;2024-01-30T01:46:55;11.11;77.63
82001;SHT30;71522;50.870;3.524;2024-01-30T01:49:25;11.10;77.75
82001;SHT30;71522;50.870;3.524;2024-01-30T01:51:55;11.10;77.77
82001;SHT30;71522;50.870;3.524;2024-01-30T01:54:23;11.10;77.88
82001;SHT30;71522;50.870;3.524;2024-01-30T01:56:52;11.12;77.79
82001;SHT30;71522;50.870;3.524;2024-01-30T01:59:21;11.08;77.99
82001;SHT30;71522;50.870;3.524;2024-01-30T02:01:47;11.10;77.94
82001;SHT30;71522;50.870;3.524;2024-01-30T02:04:15;11.12;77.98
82001;SHT30;71522;50.870;3.524;2024-01-30T02:06:43;11.12;77.83
82001;SHT30;71522;50.870;3.524;2024-01-30T02:09:09;11.12;77.92
82001;SHT30;71522;50.870;3.524;2024-01-30T02:11:35;11.11;77.91
82001;SHT30;71522;50.870;3.524;2024-01-30T02:14:05;11.08;78.01
82001;SHT30;71522;50.870;3.524;2024-01-30T02:16:31;11.07;78.19
82001;SHT30;71522;50.870;3.524;2024-01-30T02:18:57;11.18;77.76
82001;SHT30;71522;50.870;3.524;2024-01-30T02:21:23;11.08;77.94
82001;SHT30;71522;50.870;3.524;2024-01-30T02:23:49;11.11;77.94
82001;SHT30;71522;50.870;3.524;2024-01-30T02:26:16;11.08;78.12
82001;SHT30;71522;50.870;3.524;2024-01-30T02:28:41;11.08;78.08
82001;SHT30;71522;50.870;3.524;2024-01-30T02:31:07;11.14;77.89
82001;SHT30;71522;50.870;3.524;2024-01-30T02:33:33;11.00;78.19
82001;SHT30;71522;50.870;3.524;2024-01-30T02:35:58;10.97;78.36
82001;SHT30;71522;50.870;3.524;2024-01-30T02:38:24;10.94;78.56
82001;SHT30;71522;50.870;3.524;2024-01-30T02:40:52;11.01;78.39
82001;SHT30;71522;50.870;3.524;2024-01-30T02:43:18;11.00;78.51
82001;SHT30;71522;50.870;3.524;2024-01-30T02:45:43;11.04;78.28
82001;SHT30;71522;50.870;3.524;2024-01-30T02:48:09;11.11;78.06
82001;SHT30;71522;50.870;3.524;2024-01-30T02:50:35;11.04;78.15
82001;SHT30;71522;50.870;3.524;2024-01-30T02:53:00;10.95;78.39
82001;SHT30;71522;50.870;3.524;2024-01-30T02:55:26;10.93;78.61
82001;SHT30;71522;50.870;3.524;2024-01-30T02:57:52;10.88;78.65
82001;SHT30;71522;50.870;3.524;2024-01-30T03:00:19;10.93;78.66
82001;SHT30;71522;50.870;3.524;2024-01-30T03:02:46;10.97;78.59
82001;SHT30;71522;50.870;3.524;2024-01-30T03:05:12;10.95;78.61
82001;SHT30;71522;50.870;3.524;2024-01-30T03:07:38;10.97;78.54
82001;SHT30;71522;50.870;3.524;2024-01-30T03:10:05;10.97;78.59
82001;SHT30;71522;50.870;3.524;2024-01-30T03:12:31;10.94;78.71
82001;SHT30;71522;50.870;3.524;2024-01-30T03:14:57;11.00;78.50
82001;SHT30;71522;50.870;3.524;2024-01-30T03:17:23;11.07;78.31
82001;SHT30;71522;50.870;3.524;2024-01-30T03:19:49;11.04;78.39
82001;SHT30;71522;50.870;3.524;2024-01-30T03:22:15;11.01;78.36
82001;SHT30;71522;50.870;3.524;2024-01-30T03:24:41;11.05;78.29
82001;SHT30;71522;50.870;3.524;2024-01-30T03:27:06;11.10;78.22
82001;SHT30;71522;50.870;3.524;2024-01-30T03:29:32;11.07;78.12
82001;SHT30;71522;50.870;3.524;2024-01-30T03:31:58;11.10;78.18
82001;SHT30;71522;50.870;3.524;2024-01-30T03:34:24;11.11;78.13
82001;SHT30;71522;50.870;3.524;2024-01-30T03:36:50;11.04;78.44
82001;SHT30;71522;50.870;3.524;2024-01-30T03:39:15;11.04;78.34
82001;SHT30;71522;50.870;3.524;2024-01-30T03:41:44;10.95;78.64
82001;SHT30;71522;50.870;3.524;2024-01-30T03:44:10;10.94;78.62
82001;SHT30;71522;50.870;3.524;2024-01-30T03:46:37;10.93;78.62
82001;SHT30;71522;50.870;3.524;2024-01-30T03:49:04;10.88;78.81
82001;SHT30;71522;50.870;3.524;2024-01-30T03:51:30;10.88;78.81
82001;SHT30;71522;50.870;3.524;2024-01-30T03:53:56;10.88;78.72
82001;SHT30;71522;50.870;3.524;2024-01-30T03:56:21;10.91;78.68
82001;SHT30;71522;50.870;3.524;2024-01-30T03:58:47;10.85;78.73
82001;SHT30;71522;50.870;3.524;2024-01-30T04:01:16;10.81;78.86
82001;SHT30;71522;50.870;3.524;2024-01-30T04:03:41;10.83;78.86
82001;SHT30;71522;50.870;3.524;2024-01-30T04:06:09;10.81;79.06
82001;SHT30;71522;50.870;3.524;2024-01-30T04:08:35;10.80;78.99
82001;SHT30;71522;50.870;3.524;2024-01-30T04:11:04;10.85;78.79
82001;SHT30;71522;50.870;3.524;2024-01-30T04:13:31;10.84;78.65
82001;SHT30;71522;50.870;3.524;2024-01-30T04:16:01;10.83;78.72
82001;SHT30;71522;50.870;3.524;2024-01-30T04:18:28;10.78;78.91
82001;SHT30;71522;50.870;3.524;2024-01-30T04:20:54;10.78;78.82
82001;SHT30;71522;50.870;3.524;2024-01-30T04:23:20;10.83;78.67
82001;SHT30;71522;50.870;3.524;2024-01-30T04:25:46;10.85;78.64
82001;SHT30;71522;50.870;3.524;2024-01-30T04:28:12;10.84;78.60
82001;SHT30;71522;50.870;3.524;2024-01-30T04:30:38;10.90;78.56
82001;SHT30;71522;50.870;3.524;2024-01-30T04:33:04;10.91;78.52
82001;SHT30;71522;50.870;3.524;2024-01-30T04:35:30;10.94;78.37
82001;SHT30;71522;50.870;3.524;2024-01-30T04:37:55;10.85;78.47
82001;SHT30;71522;50.870;3.524;2024-01-30T04:40:21;10.81;78.62
82001;SHT30;71522;50.870;3.524;2024-01-30T04:42:47;10.78;78.66
82001;SHT30;71522;50.870;3.524;2024-01-30T04:45:12;10.75;78.71
82001;SHT30;71522;50.870;3.524;2024-01-30T04:47:38;10.80;78.94
82001;SHT30;71522;50.870;3.524;2024-01-30T04:50:08;10.84;78.71
82001;SHT30;71522;50.870;3.524;2024-01-30T04:52:34;10.84;78.57
82001;SHT30;71522;50.870;3.524;2024-01-30T04:55:00;10.88;78.52
82001;SHT30;71522;50.870;3.524;2024-01-30T04:57:25;10.88;78.43
82001;SHT30;71522;50.870;3.524;2024-01-30T04:59:52;10.84;78.49
82001;SHT30;71522;50.870;3.524;2024-01-30T05:02:18;10.77;78.82
82001;SHT30;71522;50.870;3.524;2024-01-30T05:04:44;10.80;78.68
82001;SHT30;71522;50.870;3.524;2024-01-30T05:07:09;10.83;78.79
82001;SHT30;71522;50.870;3.524;2024-01-30T05:09:35;10.80;78.57
82001;SHT30;71522;50.870;3.524;2024-01-30T05:12:01;10.90;78.37
82001;SHT30;71522;50.870;3.524;2024-01-30T05:14:26;10.84;78.49
82001;SHT30;71522;50.870;3.524;2024-01-30T05:16:52;10.80;78.62
82001;SHT30;71522;50.870;3.524;2024-01-30T05:19:18;10.77;78.77
82001;SHT30;71522;50.870;3.524;2024-01-30T05:21:44;10.74;78.79
82001;SHT30;71522;50.870;3.524;2024-01-30T05:24:10;10.68;79.02
82001;SHT30;71522;50.870;3.524;2024-01-30T05:26:36;10.65;79.28
82001;SHT30;71522;50.870;3.524;2024-01-30T05:29:02;10.63;79.47
82001;SHT30;71522;50.870;3.524;2024-01-30T05:31:29;10.65;79.53
82001;SHT30;71522;50.870;3.524;2024-01-30T05:33:55;10.73;79.56
82001;SHT30;71522;50.870;3.524;2024-01-30T05:36:22;10.80;79.21
82001;SHT30;71522;50.870;3.524;2024-01-30T05:38:49;10.91;79.04
82001;SHT30;71522;50.870;3.524;2024-01-30T05:41:22;10.94;78.85
82001;SHT30;71522;50.870;3.524;2024-01-30T05:43:48;10.94;78.77
82001;SHT30;71522;50.870;3.524;2024-01-30T05:46:13;11.01;78.61
82001;SHT30;71522;50.870;3.524;2024-01-30T05:48:39;11.01;78.68
82001;SHT30;71522;50.870;3.524;2024-01-30T05:51:07;11.04;78.49
82001;SHT30;71522;50.870;3.524;2024-01-30T05:53:33;11.05;78.45
82001;SHT30;71522;50.870;3.524;2024-01-30T05:56:00;11.07;78.54
82001;SHT30;71522;50.870;3.524;2024-01-30T05:58:26;11.04;78.54
82001;SHT30;71522;50.870;3.524;2024-01-30T06:00:52;11.05;78.60
82001;SHT30;71522;50.870;3.524;2024-01-30T06:03:18;11.04;78.54
82001;SHT30;71522;50.870;3.524;2024-01-30T06:05:43;11.02;78.70
82001;SHT30;71522;50.870;3.524;2024-01-30T06:08:09;11.02;78.69
82001;SHT30;71522;50.870;3.524;2024-01-30T06:10:34;11.04;78.63
82001;SHT30;71522;50.870;3.524;2024-01-30T06:13:01;11.08;78.54
82001;SHT30;71522;50.870;3.524;2024-01-30T06:15:27;11.05;78.72
82001;SHT30;71522;50.870;3.524;2024-01-30T06:17:55;11.05;78.74
82001;SHT30;71522;50.870;3.524;2024-01-30T06:20:20;11.08;78.68
82001;SHT30;71522;50.870;3.524;2024-01-30T06:22:46;11.04;78.78
82001;SHT30;71522;50.870;3.524;2024-01-30T06:25:13;11.12;78.55
82001;SHT30;71522;50.870;3.524;2024-01-30T06:27:39;11.10;78.62
82001;SHT30;71522;50.870;3.524;2024-01-30T06:30:05;11.07;78.75
82001;SHT30;71522;50.870;3.524;2024-01-30T06:32:31;11.11;78.62
82001;SHT30;71522;50.870;3.524;2024-01-30T06:35:02;11.19;78.45
82001;SHT30;71522;50.870;3.524;2024-01-30T06:37:28;11.16;78.47
82001;SHT30;71522;50.870;3.524;2024-01-30T06:39:54;11.23;78.36
82001;SHT30;71522;50.870;3.524;2024-01-30T06:42:19;11.25;78.52
82001;SHT30;71522;50.870;3.524;2024-01-30T06:44:45;11.28;78.37
82001;SHT30;71522;50.870;3.524;2024-01-30T06:47:11;11.26;78.55
82001;SHT30;71522;50.870;3.524;2024-01-30T06:49:37;11.26;78.62
82001;SHT30;71522;50.870;3.524;2024-01-30T06:52:07;11.28;78.66
82001;SHT30;71522;50.870;3.524;2024-01-30T06:54:33;11.29;78.75
82001;SHT30;71522;50.870;3.524;2024-01-30T06:57:00;11.29;78.67
82001;SHT30;71522;50.870;3.524;2024-01-30T06:59:26;11.32;78.68
82001;SHT30;71522;50.870;3.524;2024-01-30T07:01:52;11.32;78.59
82001;SHT30;71522;50.870;3.524;2024-01-30T07:04:17;11.36;78.55
82001;SHT30;71522;50.870;3.524;2024-01-30T07:06:44;11.40;78.44
82001;SHT30;71522;50.870;3.524;2024-01-30T07:09:09;11.39;78.39
82001;SHT30;71522;50.870;3.524;2024-01-30T07:11:35;11.39;78.48
82001;SHT30;71522;50.870;3.524;2024-01-30T07:14:01;11.39;78.54
82001;SHT30;71522;50.870;3.524;2024-01-30T07:16:30;11.42;78.36
82001;SHT30;71522;50.870;3.524;2024-01-30T07:18:55;11.44;78.28
82001;SHT30;71522;50.870;3.524;2024-01-30T07:21:22;11.44;78.26
82001;SHT30;71522;50.870;3.524;2024-01-30T07:23:54;11.43;78.20
82001;SHT30;71522;50.870;3.524;2024-01-30T07:26:20;11.42;78.27
82001;SHT30;71522;50.870;3.524;2024-01-30T07:28:45;11.42;78.35
82001;SHT30;71522;50.870;3.524;2024-01-30T07:31:11;11.42;78.43
82001;SHT30;71522;50.870;3.524;2024-01-30T07:33:37;11.35;78.49
82001;SHT30;71522;50.870;3.524;2024-01-30T07:36:02;11.42;78.39
82001;SHT30;71522;50.870;3.524;2024-01-30T07:38:31;11.42;78.29
82001;SHT30;71522;50.870;3.524;2024-01-30T07:40:57;11.42;78.37
82001;SHT30;71522;50.870;3.524;2024-01-30T07:43:22;11.44;78.39
82001;SHT30;71522;50.870;3.524;2024-01-30T07:45:48;11.47;78.43
82001;SHT30;71522;50.870;3.524;2024-01-30T07:48:15;11.44;78.53
82001;SHT30;71522;50.870;3.524;2024-01-30T07:50:40;11.39;78.73
82001;SHT30;71522;50.870;3.524;2024-01-30T07:53:06;11.35;78.93
82001;SHT30;71522;50.870;3.524;2024-01-30T07:55:32;11.32;79.20
82001;SHT30;71522;50.870;3.524;2024-01-30T07:57:58;11.32;79.27
82001;SHT30;71522;50.870;3.524;2024-01-30T08:00:27;11.32;79.29
82001;SHT30;71522;50.870;3.524;2024-01-30T08:02:54;11.31;79.46
82001;SHT30;71522;50.870;3.524;2024-01-30T08:05:22;11.39;79.18
82001;SHT30;71522;50.870;3.524;2024-01-30T08:07:49;11.39;79.18
82001;SHT30;71522;50.870;3.524;2024-01-30T08:10:15;11.39;79.34
82001;SHT30;71522;50.870;3.524;2024-01-30T08:12:41;11.42;79.35
82001;SHT30;71522;50.870;3.524;2024-01-30T08:15:07;11.39;79.44
82001;SHT30;71522;50.870;3.524;2024-01-30T08:17:34;11.39;79.59
82001;SHT30;71522;50.870;3.524;2024-01-30T08:19:59;11.35;79.64
82001;SHT30;71522;50.870;3.524;2024-01-30T08:22:25;11.33;79.76
82001;SHT30;71522;50.870;3.524;2024-01-30T08:24:51;11.31;79.95
82001;SHT30;71522;50.870;3.524;2024-01-30T08:27:17;11.29;80.18
82001;SHT30;71522;50.870;3.524;2024-01-30T08:29:43;11.32;80.11
82001;SHT30;71522;50.870;3.524;2024-01-30T08:32:09;11.31;80.21
82001;SHT30;71522;50.870;3.524;2024-01-30T08:34:34;11.28;80.27
82001;SHT30;71522;50.870;3.524;2024-01-30T08:37:00;11.33;80.25
82001;SHT30;71522;50.870;3.524;2024-01-30T08:39:26;11.40;80.05
82001;SHT30;71522;50.870;3.524;2024-01-30T08:41:52;11.40;80.15
82001;SHT30;71522;50.870;3.524;2024-01-30T08:44:17;11.38;80.12
82001;SHT30;71522;50.870;3.524;2024-01-30T08:46:44;11.40;80.08
82001;SHT30;71522;50.870;3.524;2024-01-30T08:49:16;11.51;79.73
82001;SHT30;71522;50.870;3.524;2024-01-30T08:51:42;11.56;79.28
82001;SHT30;71522;50.870;3.524;2024-01-30T08:54:08;11.63;78.96
82001;SHT30;71522;50.870;3.524;2024-01-30T08:56:34;11.55;78.80
82001;SHT30;71522;50.870;3.524;2024-01-30T08:59:00;11.55;78.46
82001;SHT30;71522;50.870;3.524;2024-01-30T09:01:25;11.52;78.08
82001;SHT30;71522;50.870;3.524;2024-01-30T09:03:52;11.65;77.63
82001;SHT30;71522;50.870;3.524;2024-01-30T09:06:17;11.62;77.51
82001;SHT30;71522;50.870;3.524;2024-01-30T09:08:43;11.60;76.94
82001;SHT30;71522;50.870;3.524;2024-01-30T09:11:11;11.56;77.31
82001;SHT30;71522;50.870;3.524;2024-01-30T09:13:36;11.47;77.21
82001;SHT30;71522;50.870;3.524;2024-01-30T09:16:05;11.40;77.43
82001;SHT30;71522;50.870;3.524;2024-01-30T09:18:31;11.47;77.24
82001;SHT30;71522;50.870;3.524;2024-01-30T09:20:57;11.46;77.84
82001;SHT30;71522;50.870;3.524;2024-01-30T09:23:23;11.40;77.70
82001;SHT30;71522;50.870;3.524;2024-01-30T09:25:49;11.42;77.45
82001;SHT30;71522;50.870;3.524;2024-01-30T09:28:15;11.43;77.44
82001;SHT30;71522;50.870;3.524;2024-01-30T09:30:40;11.43;76.98
82001;SHT30;71522;50.870;3.524;2024-01-30T09:33:06;11.35;77.22
82001;SHT30;71522;50.870;3.524;2024-01-30T09:35:32;11.04;77.14
82001;SHT30;71522;50.870;3.524;2024-01-30T09:37:59;11.18;76.93
82001;SHT30;71522;50.870;3.524;2024-01-30T09:40:25;11.21;76.07
82001;SHT30;71522;50.870;3.524;2024-01-30T09:42:51;11.00;76.16
82001;SHT30;71522;50.870;3.524;2024-01-30T09:45:20;10.80;76.94
82001;SHT30;71522;50.870;3.524;2024-01-30T09:47:49;10.84;76.29
82001;SHT30;71522;50.870;3.524;2024-01-30T09:50:15;10.80;75.79
82001;SHT30;71522;50.870;3.524;2024-01-30T09:52:45;10.84;75.72
82001;SHT30;71522;50.870;3.524;2024-01-30T09:55:11;10.85;75.37
82001;SHT30;71522;50.870;3.524;2024-01-30T09:57:38;10.84;75.19
82001;SHT30;71522;50.870;3.524;2024-01-30T10:00:04;10.61;75.25
82001;SHT30;71522;50.870;3.524;2024-01-30T10:02:33;10.50;75.91
82001;SHT30;71522;50.870;3.524;2024-01-30T10:04:59;10.63;76.08
82001;SHT30;71522;50.870;3.524;2024-01-30T10:07:26;10.74;75.60
82001;SHT30;71522;50.870;3.524;2024-01-30T10:09:53;10.80;75.23
82001;SHT30;71522;50.870;3.524;2024-01-30T10:12:19;10.75;75.57
82001;SHT30;71522;50.870;3.524;2024-01-30T10:14:45;10.83;74.65
82001;SHT30;71522;50.870;3.524;2024-01-30T10:17:12;10.63;75.25
82001;SHT30;71522;50.870;3.524;2024-01-30T10:19:40;10.64;75.08
82001;SHT30;71522;50.870;3.524;2024-01-30T10:22:06;10.90;73.94
82001;SHT30;71522;50.870;3.524;2024-01-30T10:24:34;11.11;73.51
82001;SHT30;71522;50.870;3.524;2024-01-30T10:27:00;11.35;73.19
82001;SHT30;71522;50.870;3.524;2024-01-30T10:29:27;11.38;73.36
82001;SHT30;71522;50.870;3.524;2024-01-30T10:34:25;11.60;72.67
82001;SHT30;71522;50.870;3.524;2024-01-30T10:39:39;11.81;71.12
82001;SHT30;71522;50.870;3.524;2024-01-30T10:42:05;11.80;70.86
82001;SHT30;71522;50.870;3.524;2024-01-30T10:45:00;11.93;71.02
82001;SHT30;71522;50.870;3.524;2024-01-30T10:47:29;11.80;71.09
82001;SHT30;71522;50.870;3.524;2024-01-30T10:49:56;11.81;70.88
82001;SHT30;71522;50.870;3.524;2024-01-30T10:52:26;11.86;71.61
82001;SHT30;71522;50.870;3.524;2024-01-30T10:54:53;11.72;71.33
82001;SHT30;71522;50.870;3.524;2024-01-30T10:57:20;11.58;71.16
82001;SHT30;71522;50.870;3.524;2024-01-30T10:59:49;11.60;72.11
82001;SHT30;71522;50.870;3.524;2024-01-30T11:02:17;11.53;71.90
82001;SHT30;71522;50.870;3.524;2024-01-30T11:04:43;11.39;71.83
82001;SHT30;71522;50.870;3.524;2024-01-30T11:07:18;11.49;71.92
82001;SHT30;71522;50.870;3.524;2024-01-30T11:12:27;11.66;70.79
82001;SHT30;71522;50.870;3.524;2024-01-30T11:15:09;11.69;71.02
82001;SHT30;71522;50.870;3.524;2024-01-30T11:17:53;11.73;70.46
82001;SHT30;71522;50.870;3.524;2024-01-30T11:22:48;11.59;70.03
82001;SHT30;71522;50.870;3.524;2024-01-30T11:25:16;11.51;70.09
82001;SHT30;71522;50.870;3.524;2024-01-30T11:27:43;11.56;70.18
82001;SHT30;71522;50.870;3.524;2024-01-30T11:30:09;11.58;69.82
82001;SHT30;71522;50.870;3.524;2024-01-30T11:32:36;11.53;71.26
82001;SHT30;71522;50.870;3.524;2024-01-30T11:35:04;11.55;71.06
82001;SHT30;71522;50.870;3.524;2024-01-30T11:37:31;11.67;69.93
82001;SHT30;71522;50.870;3.524;2024-01-30T11:39:58;11.63;70.01
82001;SHT30;71522;50.870;3.524;2024-01-30T11:42:24;11.53;69.41
82001;SHT30;71522;50.870;3.524;2024-01-30T11:44:53;11.26;70.42
82001;SHT30;71522;50.870;3.524;2024-01-30T11:47:19;11.15;70.15
82001;SHT30;71522;50.870;3.524;2024-01-30T11:49:45;11.00;71.68
82001;SHT30;71522;50.870;3.524;2024-01-30T11:52:10;10.90;72.27
82001;SHT30;71522;50.870;3.524;2024-01-30T11:54:39;10.81;71.84
82001;SHT30;71522;50.870;3.524;2024-01-30T11:57:05;10.61;72.44
82001;SHT30;71522;50.870;3.524;2024-01-30T11:59:31;10.63;72.20
82001;SHT30;71522;50.870;3.524;2024-01-30T12:01:56;10.65;72.16
82001;SHT30;71522;50.870;3.524;2024-01-30T12:04:22;10.36;73.06
82001;SHT30;71522;50.870;3.524;2024-01-30T12:06:51;10.23;73.88
82001;SHT30;71522;50.870;3.524;2024-01-30T12:09:17;10.17;74.58
82001;SHT30;71522;50.870;3.524;2024-01-30T12:11:47;10.28;74.23
82001;SHT30;71522;50.870;3.524;2024-01-30T12:14:14;10.25;73.87
82001;SHT30;71522;50.870;3.524;2024-01-30T12:16:40;10.23;73.66
82001;SHT30;71522;50.870;3.524;2024-01-30T12:19:06;10.17;74.19
82001;SHT30;71522;50.870;3.524;2024-01-30T12:21:33;10.16;74.47
82001;SHT30;71522;50.870;3.524;2024-01-30T12:24:00;10.03;74.92
82001;SHT30;71522;50.870;3.524;2024-01-30T12:26:26;10.17;74.91
82001;SHT30;71522;50.870;3.524;2024-01-30T12:28:56;9.91;75.53
82001;SHT30;71522;50.870;3.524;2024-01-30T12:31:31;9.95;75.25
82001;SHT30;71522;50.870;3.524;2024-01-30T12:33:59;10.02;75.81
82001;SHT30;71522;50.870;3.524;2024-01-30T12:36:28;10.13;75.10
82001;SHT30;71522;50.870;3.524;2024-01-30T12:38:53;10.13;74.90
82001;SHT30;71522;50.870;3.524;2024-01-30T12:41:20;10.16;74.77
82001;SHT30;71522;50.870;3.524;2024-01-30T12:43:45;10.15;74.78
82001;SHT30;71522;50.870;3.524;2024-01-30T12:46:13;10.05;75.43
82001;SHT30;71522;50.870;3.524;2024-01-30T12:48:39;9.78;75.85
82001;SHT30;71522;50.870;3.524;2024-01-30T12:51:04;9.71;75.21
82001;SHT30;71522;50.870;3.524;2024-01-30T12:53:30;9.68;75.49
82001;SHT30;71522;50.870;3.524;2024-01-30T12:55:56;9.73;75.76
82001;SHT30;71522;50.870;3.524;2024-01-30T12:58:21;9.74;76.08
82001;SHT30;71522;50.870;3.524;2024-01-30T13:00:47;9.78;75.97
82001;SHT30;71522;50.870;3.524;2024-01-30T13:03:13;9.81;75.64
82001;SHT30;71522;50.870;3.524;2024-01-30T13:05:39;9.75;75.91
82001;SHT30;71522;50.870;3.524;2024-01-30T13:08:05;9.84;76.33
82001;SHT30;71522;50.870;3.524;2024-01-30T13:10:30;9.84;75.68
82001;SHT30;71522;50.870;3.524;2024-01-30T13:12:57;9.82;75.68
82001;SHT30;71522;50.870;3.524;2024-01-30T13:15:23;9.94;75.07
82001;SHT30;71522;50.870;3.524;2024-01-30T13:17:50;9.96;74.17
82001;SHT30;71522;50.870;3.524;2024-01-30T13:20:15;10.06;73.38
82001;SHT30;71522;50.870;3.524;2024-01-30T13:22:44;10.02;73.48
82001;SHT30;71522;50.870;3.524;2024-01-30T13:25:10;9.78;73.66
82001;SHT30;71522;50.870;3.524;2024-01-30T13:27:37;9.82;74.00
82001;SHT30;71522;50.870;3.524;2024-01-30T13:30:03;9.91;73.16
82001;SHT30;71522;50.870;3.524;2024-01-30T13:32:29;9.92;73.75
82001;SHT30;71522;50.870;3.524;2024-01-30T13:34:55;9.92;73.44
82001;SHT30;71522;50.870;3.524;2024-01-30T13:37:22;9.86;74.07
82001;SHT30;71522;50.870;3.524;2024-01-30T13:39:48;9.81;74.53
82001;SHT30;71522;50.870;3.524;2024-01-30T13:42:15;9.59;75.19
82001;SHT30;71522;50.870;3.524;2024-01-30T13:44:41;9.61;75.97
82001;SHT30;71522;50.870;3.524;2024-01-30T13:47:09;9.62;75.13
82001;SHT30;71522;50.870;3.524;2024-01-30T13:49:35;9.57;75.70
82001;SHT30;71522;50.870;3.524;2024-01-30T13:52:02;9.54;76.00
82001;SHT30;71522;50.870;3.524;2024-01-30T13:54:29;9.65;75.41
82001;SHT30;71522;50.870;3.524;2024-01-30T13:56:57;9.52;74.93
82001;SHT30;71522;50.870;3.524;2024-01-30T13:59:22;9.48;74.73
82001;SHT30;71522;50.870;3.524;2024-01-30T14:01:50;9.50;74.31
82001;SHT30;71522;50.870;3.524;2024-01-30T14:04:16;9.62;73.71
82001;SHT30;71522;50.870;3.524;2024-01-30T14:06:43;9.65;73.65
82001;SHT30;71522;50.870;3.524;2024-01-30T14:09:08;9.68;74.84
82001;SHT30;71522;50.870;3.524;2024-01-30T14:11:37;9.57;74.10
82001;SHT30;71522;50.870;3.524;2024-01-30T14:14:02;9.57;74.52
82001;SHT30;71522;50.870;3.524;2024-01-30T14:16:28;9.62;73.51
82001;SHT30;71522;50.870;3.524;2024-01-30T14:18:54;9.62;74.16
82001;SHT30;71522;50.870;3.524;2024-01-30T14:21:20;9.65;74.43
82001;SHT30;71522;50.870;3.524;2024-01-30T14:23:46;9.55;74.42
82001;SHT30;71522;50.870;3.524;2024-01-30T14:26:12;9.65;73.76
82001;SHT30;71522;50.870;3.524;2024-01-30T14:28:38;9.61;73.88
82001;SHT30;71522;50.870;3.524;2024-01-30T14:31:03;9.50;74.51
82001;SHT30;71522;50.870;3.524;2024-01-30T14:33:30;9.46;74.98
82001;SHT30;71522;50.870;3.524;2024-01-30T14:35:57;9.46;74.98
82001;SHT30;71522;50.870;3.524;2024-01-30T14:38:23;9.38;75.60
82001;SHT30;71522;50.870;3.524;2024-01-30T14:40:50;9.33;75.29
82001;SHT30;71522;50.870;3.524;2024-01-30T14:43:16;9.30;75.58
82001;SHT30;71522;50.870;3.524;2024-01-30T14:45:41;9.30;76.16
82001;SHT30;71522;50.870;3.524;2024-01-30T14:48:08;9.20;76.53
82001;SHT30;71522;50.870;3.524;2024-01-30T14:50:34;9.16;77.24
82001;SHT30;71522;50.870;3.524;2024-01-30T14:53:00;8.95;77.81
82001;SHT30;71522;50.870;3.524;2024-01-30T14:55:25;8.95;78.17
82001;SHT30;71522;50.870;3.524;2024-01-30T14:57:51;8.89;78.73
82001;SHT30;71522;50.870;3.524;2024-01-30T15:00:17;8.69;79.23
82001;SHT30;71522;50.870;3.524;2024-01-30T15:02:43;8.69;79.39
82001;SHT30;71522;50.870;3.524;2024-01-30T15:05:10;8.68;79.96
82001;SHT30;71522;50.870;3.524;2024-01-30T15:07:37;8.59;79.88
82001;SHT30;71522;50.870;3.524;2024-01-30T15:10:03;8.64;80.43
82001;SHT30;71522;50.870;3.524;2024-01-30T15:12:29;8.59;80.05
82001;SHT30;71522;50.870;3.524;2024-01-30T15:14:54;8.62;80.02
82001;SHT30;71522;50.870;3.524;2024-01-30T15:17:20;8.67;79.94
82001;SHT30;71522;50.870;3.524;2024-01-30T15:19:49;8.71;80.05
82001;SHT30;71522;50.870;3.524;2024-01-30T15:22:16;8.73;79.47
82001;SHT30;71522;50.870;3.524;2024-01-30T15:24:42;8.72;79.30
82001;SHT30;71522;50.870;3.524;2024-01-30T15:27:07;8.67;79.38
82001;SHT30;71522;50.870;3.524;2024-01-30T15:29:33;8.68;79.11
82001;SHT30;71522;50.870;3.524;2024-01-30T15:31:59;8.68;79.42
82001;SHT30;71522;50.870;3.524;2024-01-30T15:34:24;8.75;79.05
82001;SHT30;71522;50.870;3.524;2024-01-30T15:36:50;8.76;79.06
82001;SHT30;71522;50.870;3.524;2024-01-30T15:39:16;8.80;78.96